Time;durP1;ratioP1;P1;durP2;ratioP2;P2;SDS_P1;SDS_P2;PMS_P1;PMS_P2;Temp;Humidity;BMP_temperature;BMP_pressure;BME280_temperature;BME280_humidity;BME280_pressure;Samples;Min_cycle;Max_cycle;Signal;HPM_P1;HPM_P2
2023/09/14 00:01:22;;;;;;;;;;;17.40;99.90;;;;;;2618437;47;19946;-67
2023/09/14 00:03:53;;;;;;;;;;;17.40;99.90;;;;;;2619210;54;19953;-67
2023/09/14 00:06:23;;;;;;;;;;;17.40;99.90;;;;;;2619429;47;19946;-69
2023/09/14 00:08:53;;;;;;;;;;;17.30;99.90;;;;;;2627483;39;20356;-67
2023/09/14 00:11:23;;;;;;;;;;;17.20;99.90;;;;;;2619951;54;19969;-68
2023/09/14 00:13:53;;;;;;;;;;;17.20;99.90;;;;;;2619165;54;19947;-67
2023/09/14 00:16:25;;;;;;;;;;;17.20;99.90;;;;;;2618983;54;19947;-67
2023/09/14 00:18:54;;;;;;;;;;;17.20;99.90;;;;;;2618787;39;20384;-67
2023/09/14 00:21:24;;;;;;;;;;;17.20;99.90;;;;;;2618721;54;20454;-67
2023/09/14 00:23:54;;;;;;;;;;;17.10;99.90;;;;;;2618568;47;20055;-67
2023/09/14 00:26:24;;;;;;;;;;;17.10;99.90;;;;;;2618316;54;19997;-67
2023/09/14 00:28:53;;;;;;;;;;;17.10;99.90;;;;;;2618285;54;19939;-67
2023/09/14 00:31:25;;;;;;;;;;;17.10;99.90;;;;;;2618304;47;19950;-67
2023/09/14 00:33:56;;;;;;;;;;;17.10;99.90;;;;;;2619785;31;20419;-69
2023/09/14 00:36:26;;;;;;;;;;;17.10;99.90;;;;;;2619093;39;20378;-68
2023/09/14 00:38:56;;;;;;;;;;;17.10;99.90;;;;;;2618478;54;20486;-68
2023/09/14 00:41:25;;;;;;;;;;;17.10;99.90;;;;;;2617836;54;20443;-68
2023/09/14 00:43:55;;;;;;;;;;;17.00;99.90;;;;;;2618891;47;19946;-69
2023/09/14 00:46:28;;;;;;;;;;;17.00;99.90;;;;;;2618035;54;19947;-67
2023/09/14 00:48:59;;;;;;;;;;;17.00;99.90;;;;;;2618120;47;19951;-69
2023/09/14 00:51:30;;;;;;;;;;;16.90;99.90;;;;;;2617907;54;19952;-68
2023/09/14 00:54:03;;;;;;;;;;;16.90;99.90;;;;;;2621621;54;19946;-69
2023/09/14 00:56:32;;;;;;;;;;;16.90;99.90;;;;;;2623223;39;20364;-68
2023/09/14 00:59:03;;;;;;;;;;;16.80;99.90;;;;;;2623256;54;19954;-70
2023/09/14 01:01:35;;;;;;;;;;;16.80;99.90;;;;;;2623612;54;19943;-72
2023/09/14 01:04:05;;;;;;;;;;;16.80;99.90;;;;;;2628099;54;19947;-67
2023/09/14 01:06:35;;;;;;;;;;;16.80;99.90;;;;;;2622474;54;19947;-67
2023/09/14 01:09:06;;;;;;;;;;;16.70;99.90;;;;;;2618942;47;20002;-67
2023/09/14 01:11:36;;;;;;;;;;;16.70;99.90;;;;;;2618514;54;19947;-67
2023/09/14 01:14:11;;;;;;;;;;;16.70;99.90;;;;;;2619147;54;19954;-67
2023/09/14 01:16:46;;;;;;;;;;;16.60;99.90;;;;;;2621052;54;19950;-66
2023/09/14 01:19:35;;;;;;;;;;;16.60;99.90;;;;;;2624290;54;19939;-66
2023/09/14 01:22:13;;;;;;;;;;;16.50;99.90;;;;;;2625729;54;19939;-66
2023/09/14 01:24:49;;;;;;;;;;;16.50;99.90;;;;;;2618610;54;19966;-65
2023/09/14 01:27:22;;;;;;;;;;;16.50;99.90;;;;;;2618832;39;20227;-67
2023/09/14 01:29:52;;;;;;;;;;;16.40;99.90;;;;;;2619155;54;19947;-66
2023/09/14 01:32:22;;;;;;;;;;;16.40;99.90;;;;;;2618869;54;19970;-67
2023/09/14 01:34:51;;;;;;;;;;;16.40;99.90;;;;;;2619040;54;19946;-66
2023/09/14 01:37:21;;;;;;;;;;;16.40;99.90;;;;;;2619441;39;20372;-66
2023/09/14 01:39:53;;;;;;;;;;;16.30;99.90;;;;;;2622701;54;19998;-65
2023/09/14 01:42:26;;;;;;;;;;;16.30;99.90;;;;;;2619725;54;19947;-67
2023/09/14 01:44:55;;;;;;;;;;;16.30;99.90;;;;;;2619409;47;20447;-66
2023/09/14 01:47:25;;;;;;;;;;;16.20;99.90;;;;;;2618413;54;19971;-66
2023/09/14 01:49:55;;;;;;;;;;;16.20;99.90;;;;;;2618919;54;20044;-66
2023/09/14 01:52:24;;;;;;;;;;;16.20;99.90;;;;;;2619597;54;19953;-68
2023/09/14 01:54:54;;;;;;;;;;;16.20;99.90;;;;;;2619185;47;19947;-66
2023/09/14 01:57:26;;;;;;;;;;;16.20;99.90;;;;;;2617859;54;19996;-66
2023/09/14 01:59:56;;;;;;;;;;;16.10;99.90;;;;;;2618626;54;19947;-66
2023/09/14 02:02:26;;;;;;;;;;;15.80;99.90;;;;;;2619817;39;20100;-68
2023/09/14 02:04:56;;;;;;;;;;;16.10;99.90;;;;;;2618761;54;19954;-66
2023/09/14 02:07:25;;;;;;;;;;;16.10;99.90;;;;;;2617903;54;19945;-66
2023/09/14 02:09:55;;;;;;;;;;;16.10;99.90;;;;;;2618801;54;19946;-66
2023/09/14 02:12:27;;;;;;;;;;;16.10;99.90;;;;;;2617990;54;20474;-66
2023/09/14 02:14:57;;;;;;;;;;;16.00;99.90;;;;;;2618562;47;19946;-67
2023/09/14 02:17:27;;;;;;;;;;;16.00;99.90;;;;;;2618459;47;20042;-66
2023/09/14 02:19:56;;;;;;;;;;;15.90;99.90;;;;;;2618321;54;19965;-66
2023/09/14 02:22:26;;;;;;;;;;;15.90;99.90;;;;;;2619842;54;19951;-68
2023/09/14 02:24:56;;;;;;;;;;;15.90;99.90;;;;;;2628541;54;19935;-67
2023/09/14 02:27:28;;;;;;;;;;;15.90;99.90;;;;;;2623810;54;19950;-65
2023/09/14 02:29:58;;;;;;;;;;;15.80;99.90;;;;;;2618804;54;19953;-66
2023/09/14 02:32:28;;;;;;;;;;;15.80;99.90;;;;;;2618182;54;20454;-66
2023/09/14 02:34:58;;;;;;;;;;;15.80;99.90;;;;;;2619384;54;20051;-66
2023/09/14 02:37:28;;;;;;;;;;;15.80;99.90;;;;;;2618633;54;19939;-67
2023/09/14 02:39:57;;;;;;;;;;;15.70;99.90;;;;;;2619276;54;19950;-67
2023/09/14 02:42:29;;;;;;;;;;;15.70;99.90;;;;;;2618760;54;19947;-66
2023/09/14 02:44:59;;;;;;;;;;;15.70;99.90;;;;;;2625108;54;19947;-67
2023/09/14 02:47:29;;;;;;;;;;;15.70;99.90;;;;;;2624614;54;20021;-69
2023/09/14 02:49:58;;;;;;;;;;;15.70;99.90;;;;;;2625936;47;19959;-66
2023/09/14 02:52:28;;;;;;;;;;;15.70;99.90;;;;;;2625439;54;19977;-67
2023/09/14 02:54:59;;;;;;;;;;;15.60;99.90;;;;;;2620140;54;19950;-67
2023/09/14 02:57:31;;;;;;;;;;;15.50;99.90;;;;;;2619150;54;19945;-67
2023/09/14 03:00:01;;;;;;;;;;;15.50;99.90;;;;;;2619610;54;20715;-67
2023/09/14 03:02:30;;;;;;;;;;;15.50;99.90;;;;;;2619871;54;19945;-66
2023/09/14 03:05:01;;;;;;;;;;;15.50;99.90;;;;;;2619773;54;19953;-66
2023/09/14 03:07:30;;;;;;;;;;;15.40;99.90;;;;;;2618694;54;19954;-67
2023/09/14 03:10:00;;;;;;;;;;;15.40;99.90;;;;;;2626768;39;20391;-67
2023/09/14 03:12:32;;;;;;;;;;;15.40;99.90;;;;;;2622232;54;19954;-66
2023/09/14 03:15:02;;;;;;;;;;;15.40;99.90;;;;;;2619155;46;20389;-67
2023/09/14 03:17:32;;;;;;;;;;;15.40;99.90;;;;;;2618803;54;19946;-68
2023/09/14 03:20:01;;;;;;;;;;;15.40;99.90;;;;;;2618216;54;19951;-67
2023/09/14 03:22:31;;;;;;;;;;;15.40;99.90;;;;;;2618676;54;19958;-67
2023/09/14 03:25:01;;;;;;;;;;;15.40;99.90;;;;;;2618819;54;19946;-67
2023/09/14 03:27:33;;;;;;;;;;;15.30;99.90;;;;;;2618430;54;19955;-67
2023/09/14 03:30:03;;;;;;;;;;;15.30;99.90;;;;;;2618597;54;19954;-67
2023/09/14 03:32:33;;;;;;;;;;;15.30;99.90;;;;;;2618118;54;19939;-66
2023/09/14 03:35:03;;;;;;;;;;;15.30;99.90;;;;;;2618917;54;19938;-66
2023/09/14 03:37:32;;;;;;;;;;;15.30;99.90;;;;;;2618910;54;19953;-66
2023/09/14 03:40:04;;;;;;;;;;;15.30;99.90;;;;;;2619217;39;20343;-68
2023/09/14 03:42:37;;;;;;;;;;;15.30;99.90;;;;;;2619239;47;19946;-66
2023/09/14 03:45:07;;;;;;;;;;;15.20;99.90;;;;;;2625370;54;19954;-68
2023/09/14 03:47:38;;;;;;;;;;;15.20;99.90;;;;;;2628084;54;20568;-67
2023/09/14 03:50:09;;;;;;;;;;;15.20;99.90;;;;;;2619530;54;20455;-67
2023/09/14 03:52:38;;;;;;;;;;;15.20;99.90;;;;;;2617832;54;19946;-68
2023/09/14 03:55:08;;;;;;;;;;;15.20;99.90;;;;;;2619018;46;19951;-70
2023/09/14 03:57:46;;;;;;;;;;;15.20;99.90;;;;;;2618068;54;20037;-69
2023/09/14 04:00:17;;;;;;;;;;;15.20;99.90;;;;;;2618324;54;20046;-69
2023/09/14 04:02:47;;;;;;;;;;;15.20;99.90;;;;;;2619026;54;20006;-68
2023/09/14 04:05:17;;;;;;;;;;;15.20;99.90;;;;;;2621234;31;20423;-70
2023/09/14 04:07:47;;;;;;;;;;;15.20;99.90;;;;;;2618867;54;19946;-69
2023/09/14 04:10:17;;;;;;;;;;;15.10;99.90;;;;;;2619246;54;19958;-71
2023/09/14 04:12:49;;;;;;;;;;;15.10;99.90;;;;;;2619761;39;20359;-70
2023/09/14 04:15:19;;;;;;;;;;;15.10;99.90;;;;;;2619619;54;19947;-69
2023/09/14 04:17:48;;;;;;;;;;;15.00;99.90;;;;;;2618137;54;19965;-70
2023/09/14 04:20:18;;;;;;;;;;;15.10;99.90;;;;;;2621906;39;20089;-70
2023/09/14 04:22:49;;;;;;;;;;;15.00;99.90;;;;;;2622373;54;19938;-68
2023/09/14 04:25:18;;;;;;;;;;;15.00;99.90;;;;;;2621537;54;19950;-69
2023/09/14 04:27:50;;;;;;;;;;;15.00;99.90;;;;;;2622221;39;20216;-68
2023/09/14 04:30:20;;;;;;;;;;;15.00;99.90;;;;;;2621994;46;19958;-68
2023/09/14 04:32:50;;;;;;;;;;;15.00;99.90;;;;;;2620539;39;20089;-68
2023/09/14 04:35:20;;;;;;;;;;;15.00;99.90;;;;;;2622733;47;19996;-68
2023/09/14 04:37:50;;;;;;;;;;;14.90;99.90;;;;;;2625148;54;19981;-69
2023/09/14 04:40:19;;;;;;;;;;;14.90;99.90;;;;;;2623644;54;19947;-69
2023/09/14 04:42:52;;;;;;;;;;;14.90;99.90;;;;;;2622468;47;20456;-68
2023/09/14 04:45:22;;;;;;;;;;;14.90;99.90;;;;;;2619390;54;20080;-69
2023/09/14 04:47:51;;;;;;;;;;;14.90;99.90;;;;;;2618615;54;19947;-68
2023/09/14 04:50:21;;;;;;;;;;;14.90;99.90;;;;;;2618346;54;19958;-68
2023/09/14 04:52:51;;;;;;;;;;;14.80;99.90;;;;;;2618756;39;20367;-66
2023/09/14 04:55:21;;;;;;;;;;;14.80;99.90;;;;;;2619078;54;19957;-65
2023/09/14 04:57:53;;;;;;;;;;;14.80;99.90;;;;;;2617708;54;19963;-66
2023/09/14 05:00:23;;;;;;;;;;;14.80;99.90;;;;;;2618671;54;19984;-65
2023/09/14 05:02:53;;;;;;;;;;;14.80;99.90;;;;;;2619093;54;19945;-68
2023/09/14 05:05:22;;;;;;;;;;;14.80;99.90;;;;;;2619900;54;19954;-65
2023/09/14 05:07:52;;;;;;;;;;;14.80;99.90;;;;;;2626272;54;20033;-71
2023/09/14 05:10:22;;;;;;;;;;;14.80;99.90;;;;;;2623020;51;19946;-68
2023/09/14 05:12:55;;;;;;;;;;;14.80;99.90;;;;;;2620167;47;20470;-67
2023/09/14 05:15:24;;;;;;;;;;;14.90;99.90;;;;;;2619168;54;19946;-66
2023/09/14 05:17:54;;;;;;;;;;;14.80;99.90;;;;;;2619169;54;19946;-65
2023/09/14 05:20:24;;;;;;;;;;;14.80;99.90;;;;;;2618822;46;20033;-66
2023/09/14 05:22:53;;;;;;;;;;;14.80;99.90;;;;;;2619893;54;19950;-65
2023/09/14 05:25:25;;;;;;;;;;;14.90;99.90;;;;;;2616851;54;19957;-65
2023/09/14 05:27:57;;;;;;;;;;;14.90;99.90;;;;;;2617254;54;19946;-63
2023/09/14 05:30:27;;;;;;;;;;;14.80;99.90;;;;;;2618973;54;19946;-64
2023/09/14 05:32:57;;;;;;;;;;;14.80;99.90;;;;;;2620479;54;19984;-66
2023/09/14 05:35:27;;;;;;;;;;;14.80;99.90;;;;;;2620025;39;20319;-65
2023/09/14 05:37:56;;;;;;;;;;;14.80;99.90;;;;;;2618408;54;19946;-64
2023/09/14 05:40:26;;;;;;;;;;;14.80;99.90;;;;;;2619042;54;19947;-66
2023/09/14 05:42:59;;;;;;;;;;;14.90;99.90;;;;;;2618129;54;19945;-64
2023/09/14 05:45:29;;;;;;;;;;;14.90;99.90;;;;;;2619464;39;20366;-64
2023/09/14 05:47:58;;;;;;;;;;;14.90;99.90;;;;;;2617615;54;19946;-63
2023/09/14 05:50:28;;;;;;;;;;;14.90;99.90;;;;;;2619251;54;19954;-63
2023/09/14 05:52:58;;;;;;;;;;;15.00;99.90;;;;;;2618496;47;20479;-63
2023/09/14 05:55:27;;;;;;;;;;;15.00;99.90;;;;;;2618538;46;19962;-63
2023/09/14 05:58:00;;;;;;;;;;;15.00;99.90;;;;;;2617767;54;19953;-63
2023/09/14 06:00:29;;;;;;;;;;;15.00;99.90;;;;;;2617854;54;20519;-62
2023/09/14 06:02:59;;;;;;;;;;;15.20;99.90;;;;;;2617649;54;19966;-63
2023/09/14 06:05:29;;;;;;;;;;;15.10;99.90;;;;;;2617925;47;19947;-63
2023/09/14 06:07:59;;;;;;;;;;;15.10;99.90;;;;;;2618956;54;19958;-61
2023/09/14 06:10:28;;;;;;;;;;;15.10;99.90;;;;;;2621848;54;20011;-63
2023/09/14 06:13:01;;;;;;;;;;;15.20;99.90;;;;;;2618390;39;20351;-65
2023/09/14 06:15:30;;;;;;;;;;;15.30;99.90;;;;;;2617122;54;19995;-63
2023/09/14 06:18:00;;;;;;;;;;;15.40;99.90;;;;;;2617255;54;19938;-64
2023/09/14 06:20:29;;;;;;;;;;;15.50;99.90;;;;;;2618796;31;20392;-65
2023/09/14 06:22:59;;;;;;;;;;;15.60;99.90;;;;;;2617071;54;20445;-65
2023/09/14 06:25:29;;;;;;;;;;;15.60;99.90;;;;;;2616580;54;19954;-64
2023/09/14 06:28:01;;;;;;;;;;;15.70;99.90;;;;;;2617387;54;19950;-64
2023/09/14 06:30:31;;;;;;;;;;;15.80;99.90;;;;;;2617471;54;19946;-63
2023/09/14 06:33:01;;;;;;;;;;;15.90;99.90;;;;;;2618553;39;20086;-63
2023/09/14 06:35:30;;;;;;;;;;;15.90;99.90;;;;;;2620194;54;20389;-72
2023/09/14 06:38:04;;;;;;;;;;;16.00;99.90;;;;;;2626262;54;19939;-64
2023/09/14 06:40:33;;;;;;;;;;;16.10;99.90;;;;;;2626614;46;20086;-64
2023/09/14 06:43:06;;;;;;;;;;;16.10;99.90;;;;;;2626750;47;19949;-65
2023/09/14 06:45:36;;;;;;;;;;;16.20;99.90;;;;;;2622088;39;20432;-63
2023/09/14 06:48:07;;;;;;;;;;;16.30;99.90;;;;;;2616124;39;20751;-64
2023/09/14 06:50:37;;;;;;;;;;;16.40;99.90;;;;;;2617005;54;19946;-64
2023/09/14 06:53:07;;;;;;;;;;;16.50;99.90;;;;;;2616850;54;19974;-64
2023/09/14 06:55:39;;;;;;;;;;;16.50;99.90;;;;;;2613981;54;20037;-64
2023/09/14 06:58:12;;;;;;;;;;;16.60;99.90;;;;;;2612971;47;19974;-66
2023/09/14 07:00:42;;;;;;;;;;;16.70;99.90;;;;;;2613673;47;19946;-63
2023/09/14 07:03:12;;;;;;;;;;;16.60;99.90;;;;;;2612765;47;19947;-64
2023/09/14 07:05:42;;;;;;;;;;;16.70;99.90;;;;;;2612963;54;19950;-65
2023/09/14 07:08:11;;;;;;;;;;;16.60;99.90;;;;;;2612691;39;20358;-63
2023/09/14 07:10:41;;;;;;;;;;;16.60;99.90;;;;;;2612265;54;19972;-64
2023/09/14 07:13:14;;;;;;;;;;;16.70;99.90;;;;;;2611975;54;19947;-65
2023/09/14 07:15:44;;;;;;;;;;;16.80;99.90;;;;;;2611976;54;20089;-64
2023/09/14 07:18:26;;;;;;;;;;;16.80;99.90;;;;;;2616152;54;19946;-63
2023/09/14 07:20:56;;;;;;;;;;;16.80;99.90;;;;;;2618666;54;19946;-67
2023/09/14 07:23:26;;;;;;;;;;;16.90;99.90;;;;;;2618511;54;20066;-67
2023/09/14 07:25:56;;;;;;;;;;;17.00;99.90;;;;;;2619638;54;19956;-64
2023/09/14 07:28:28;;;;;;;;;;;17.10;99.90;;;;;;2617446;54;19946;-64
2023/09/14 07:30:58;;;;;;;;;;;17.10;99.90;;;;;;2618104;54;19947;-64
2023/09/14 07:33:27;;;;;;;;;;;17.20;99.90;;;;;;2618507;47;19954;-62
2023/09/14 07:35:57;;;;;;;;;;;17.30;99.90;;;;;;2619964;54;19954;-62
2023/09/14 07:38:27;;;;;;;;;;;17.30;99.90;;;;;;2619699;39;20050;-64
2023/09/14 07:40:56;;;;;;;;;;;17.30;99.90;;;;;;2625718;54;19947;-63
2023/09/14 07:43:29;;;;;;;;;;;17.40;99.90;;;;;;2625687;54;20006;-69
2023/09/14 07:45:59;;;;;;;;;;;17.40;99.90;;;;;;2622028;54;19946;-70
2023/09/14 07:48:28;;;;;;;;;;;17.40;99.90;;;;;;2619327;54;19953;-69
2023/09/14 07:50:58;;;;;;;;;;;17.30;99.90;;;;;;2618623;54;19946;-71
2023/09/14 07:53:28;;;;;;;;;;;17.30;99.90;;;;;;2618697;46;19946;-70
2023/09/14 07:55:57;;;;;;;;;;;17.30;99.90;;;;;;2619204;46;19954;-70
2023/09/14 07:58:30;;;;;;;;;;;17.30;99.90;;;;;;2617819;47;20076;-71
2023/09/14 08:00:59;;;;;;;;;;;17.30;99.90;;;;;;2618996;54;20041;-72
2023/09/14 08:03:30;;;;;;;;;;;17.40;99.90;;;;;;2618226;54;19953;-69
2023/09/14 08:06:00;;;;;;;;;;;17.40;99.90;;;;;;2618265;39;20293;-70
2023/09/14 08:08:29;;;;;;;;;;;17.50;99.90;;;;;;2618571;54;19946;-69
2023/09/14 08:11:00;;;;;;;;;;;17.60;99.90;;;;;;2618711;54;20010;-69
2023/09/14 08:13:32;;;;;;;;;;;17.60;99.90;;;;;;2618491;54;19947;-70
2023/09/14 08:16:05;;;;;;;;;;;17.70;99.90;;;;;;2623428;54;19951;-71
2023/09/14 08:18:34;;;;;;;;;;;17.70;99.90;;;;;;2619971;39;20370;-72
2023/09/14 08:21:04;;;;;;;;;;;17.50;99.90;;;;;;2618915;54;19953;-72
2023/09/14 08:23:34;;;;;;;;;;;17.50;99.90;;;;;;2617732;54;19946;-73
2023/09/14 08:26:06;;;;;;;;;;;17.50;99.90;;;;;;2618255;54;19992;-73
2023/09/14 08:28:38;;;;;;;;;;;17.60;99.90;;;;;;2618479;47;19946;-73
2023/09/14 08:31:08;;;;;;;;;;;17.70;99.90;;;;;;2618676;54;20450;-74
2023/09/14 08:33:38;;;;;;;;;;;17.80;99.90;;;;;;2621216;54;19947;-72
2023/09/14 08:36:07;;;;;;;;;;;17.80;99.90;;;;;;2625218;54;19946;-73
2023/09/14 08:38:37;;;;;;;;;;;18.00;99.90;;;;;;2624921;47;20456;-72
2023/09/14 08:41:10;;;;;;;;;;;18.10;99.90;;;;;;2618704;54;19946;-71
2023/09/14 08:43:44;;;;;;;;;;;18.30;99.90;;;;;;2617324;47;19996;-71
2023/09/14 08:46:16;;;;;;;;;;;18.40;99.90;;;;;;2617947;54;19947;-72
2023/09/14 08:48:47;;;;;;;;;;;18.50;99.90;;;;;;2618565;54;20471;-71
2023/09/14 08:51:18;;;;;;;;;;;18.60;99.90;;;;;;2618401;46;20057;-72
2023/09/14 08:53:49;;;;;;;;;;;18.80;99.90;;;;;;2619039;39;20372;-73
2023/09/14 08:56:19;;;;;;;;;;;18.90;99.90;;;;;;2618009;54;19953;-72
2023/09/14 08:58:53;;;;;;;;;;;18.90;99.90;;;;;;2618681;54;19946;-72
2023/09/14 09:01:24;;;;;;;;;;;18.90;99.90;;;;;;2618996;54;19950;-73
2023/09/14 09:03:55;;;;;;;;;;;19.10;99.90;;;;;;2619942;54;19947;-72
2023/09/14 09:06:25;;;;;;;;;;;19.10;99.90;;;;;;2619279;54;19947;-72
2023/09/14 09:08:56;;;;;;;;;;;19.20;99.90;;;;;;2617203;54;19947;-73
2023/09/14 09:11:25;;;;;;;;;;;19.20;99.90;;;;;;2618707;54;19953;-72
2023/09/14 09:13:57;;;;;;;;;;;19.40;99.90;;;;;;2618542;54;19939;-72
2023/09/14 09:16:27;;;;;;;;;;;19.40;99.90;;;;;;2618111;47;19982;-72
2023/09/14 09:19:03;;;;;;;;;;;19.60;99.90;;;;;;2618660;54;20489;-73
2023/09/14 09:21:37;;;;;;;;;;;19.80;99.90;;;;;;2617876;54;19957;-72
2023/09/14 09:24:08;;;;;;;;;;;19.90;99.90;;;;;;2617632;47;20022;-74
2023/09/14 09:26:40;;;;;;;;;;;20.00;99.90;;;;;;2616849;54;19953;-71
2023/09/14 09:29:22;;;;;;;;;;;20.10;99.90;;;;;;2618245;47;19992;-72
2023/09/14 09:31:52;;;;;;;;;;;20.10;99.90;;;;;;2613449;47;19946;-72
2023/09/14 09:34:23;;;;;;;;;;;20.10;99.90;;;;;;2613974;47;19950;-67
2023/09/14 09:36:56;;;;;;;;;;;20.10;99.90;;;;;;2613337;47;19956;-67
2023/09/14 09:39:26;;;;;;;;;;;20.00;99.90;;;;;;2614151;54;20411;-66
2023/09/14 09:41:56;;;;;;;;;;;19.90;99.90;;;;;;2613953;54;20441;-67
2023/09/14 09:44:28;;;;;;;;;;;19.80;99.90;;;;;;2614144;54;19962;-66
2023/09/14 09:46:58;;;;;;;;;;;19.80;99.90;;;;;;2614454;54;19946;-65
2023/09/14 09:49:30;;;;;;;;;;;19.80;99.90;;;;;;2613013;54;19946;-66
2023/09/14 09:52:00;;;;;;;;;;;19.80;99.90;;;;;;2613877;54;19995;-66
2023/09/14 09:54:30;;;;;;;;;;;19.90;99.90;;;;;;2616332;54;19946;-68
2023/09/14 09:57:03;;;;;;;;;;;19.80;99.90;;;;;;2615550;39;20638;-72
2023/09/14 09:59:36;;;;;;;;;;;19.70;99.90;;;;;;2614017;47;20448;-72
2023/09/14 10:02:07;;;;;;;;;;;19.60;99.90;;;;;;2614315;47;20018;-72
2023/09/14 10:04:39;;;;;;;;;;;19.50;99.90;;;;;;2614239;54;19957;-70
2023/09/14 10:07:10;;;;;;;;;;;19.50;99.90;;;;;;2613672;47;19946;-71
2023/09/14 10:09:40;;;;;;;;;;;19.50;99.90;;;;;;2612862;54;19954;-72
2023/09/14 10:12:10;;;;;;;;;;;19.50;99.90;;;;;;2613688;54;19970;-72
2023/09/14 10:14:43;;;;;;;;;;;19.50;99.90;;;;;;2614436;47;19970;-72
2023/09/14 10:17:18;;;;;;;;;;;19.60;99.90;;;;;;2615239;51;19995;-72
2023/09/14 10:19:48;;;;;;;;;;;19.60;99.90;;;;;;2614677;54;20366;-72
2023/09/14 10:22:19;;;;;;;;;;;19.60;99.90;;;;;;2618648;47;19949;-73
2023/09/14 10:24:49;;;;;;;;;;;19.70;99.90;;;;;;2623016;47;20030;-72
2023/09/14 10:27:19;;;;;;;;;;;19.70;99.90;;;;;;2622817;54;19954;-72
2023/09/14 10:29:52;;;;;;;;;;;19.70;99.90;;;;;;2626073;39;20223;-72
2023/09/14 10:32:24;;;;;;;;;;;19.70;99.90;;;;;;2624299;54;19966;-72
2023/09/14 10:34:54;;;;;;;;;;;19.70;99.90;;;;;;2624112;54;19957;-74
2023/09/14 10:37:35;;;;;;;;;;;19.70;99.90;;;;;;2615560;54;19958;-72
2023/09/14 10:40:07;;;;;;;;;;;19.70;99.90;;;;;;2614509;54;20817;-72
2023/09/14 10:42:36;;;;;;;;;;;19.50;99.90;;;;;;2615286;54;19946;-72
2023/09/14 10:45:10;;;;;;;;;;;19.70;99.90;;;;;;2616673;54;19946;-72
2023/09/14 10:47:41;;;;;;;;;;;19.70;99.90;;;;;;2618732;54;19947;-71
2023/09/14 10:50:11;;;;;;;;;;;19.50;99.90;;;;;;2621400;54;19962;-71
2023/09/14 10:52:42;;;;;;;;;;;19.50;99.90;;;;;;2618559;54;19957;-67
2023/09/14 10:55:12;;;;;;;;;;;19.50;99.90;;;;;;2613917;54;19946;-67
2023/09/14 10:57:42;;;;;;;;;;;19.60;99.90;;;;;;2614300;54;19954;-67
2023/09/14 11:00:33;;;;;;;;;;;19.80;99.90;;;;;;2616232;54;19947;-67
2023/09/14 11:03:25;;;;;;;;;;;20.10;99.90;;;;;;2618107;54;19970;-68
2023/09/14 11:05:55;;;;;;;;;;;20.50;99.90;;;;;;2619341;54;19953;-67
2023/09/14 11:08:29;;;;;;;;;;;20.80;99.90;;;;;;2618654;54;20000;-67
2023/09/14 11:11:02;;;;;;;;;;;21.10;99.90;;;;;;2617599;47;19946;-67
2023/09/14 11:13:34;;;;;;;;;;;21.30;99.90;;;;;;2617525;54;19953;-71
2023/09/14 11:16:14;;;;;;;;;;;21.60;99.90;;;;;;2617472;54;19946;-72
2023/09/14 11:18:57;;;;;;;;;;;21.80;99.90;;;;;;2616902;47;19947;-71
2023/09/14 11:21:47;;;;;;;;;;;21.90;99.90;;;;;;2617472;39;20337;-71
2023/09/14 11:24:18;;;;;;;;;;;21.70;99.90;;;;;;2617960;54;19953;-71
2023/09/14 11:26:51;;;;;;;;;;;21.50;99.90;;;;;;2616346;54;19947;-70
2023/09/14 11:29:26;;;;;;;;;;;21.40;99.90;;;;;;2615994;54;20063;-71
2023/09/14 11:32:01;;;;;;;;;;;21.40;99.90;;;;;;2617632;47;20049;-71
2023/09/14 11:34:38;;;;;;;;;;;21.20;99.90;;;;;;2618067;47;19946;-72
2023/09/14 11:37:14;;;;;;;;;;;21.20;99.90;;;;;;2618246;54;19951;-72
2023/09/14 11:39:55;;;;;;;;;;;21.20;99.90;;;;;;2618061;54;19965;-71
2023/09/14 11:42:28;;;;;;;;;;;21.00;99.90;;;;;;2618316;54;19998;-71
2023/09/14 11:45:07;;;;;;;;;;;21.00;99.90;;;;;;2619548;54;19958;-71
2023/09/14 11:47:44;;;;;;;;;;;21.00;99.90;;;;;;2621062;54;19946;-68
2023/09/14 11:50:20;;;;;;;;;;;20.90;99.90;;;;;;2620296;39;20343;-68
2023/09/14 11:52:49;;;;;;;;;;;20.80;99.90;;;;;;2622719;54;19962;-68
2023/09/14 11:55:21;;;;;;;;;;;20.80;99.90;;;;;;2624865;54;20026;-68
2023/09/14 11:57:51;;;;;;;;;;;20.80;99.90;;;;;;2621751;54;19950;-68
2023/09/14 12:00:22;;;;;;;;;;;20.80;99.90;;;;;;2618174;47;19938;-68
2023/09/14 12:02:55;;;;;;;;;;;20.90;99.90;;;;;;2618334;47;19952;-67
2023/09/14 12:05:26;;;;;;;;;;;20.90;99.90;;;;;;2617940;54;19973;-69
2023/09/14 12:07:56;;;;;;;;;;;20.90;99.90;;;;;;2617461;54;19954;-71
2023/09/14 12:10:26;;;;;;;;;;;21.00;99.90;;;;;;2617161;54;19947;-72
2023/09/14 12:12:55;;;;;;;;;;;21.00;99.90;;;;;;2616854;54;19953;-72
2023/09/14 12:15:26;;;;;;;;;;;21.00;99.90;;;;;;2619305;54;20045;-70
2023/09/14 12:17:58;;;;;;;;;;;21.10;99.90;;;;;;2617898;54;19962;-70
2023/09/14 12:20:28;;;;;;;;;;;21.20;99.90;;;;;;2612976;47;19958;-70
2023/09/14 12:22:58;;;;;;;;;;;21.50;99.90;;;;;;2613603;47;19946;-70
2023/09/14 12:25:28;;;;;;;;;;;21.90;99.90;;;;;;2613820;54;20460;-71
2023/09/14 12:27:58;;;;;;;;;;;22.10;99.90;;;;;;2612722;47;19958;-70
2023/09/14 12:30:29;;;;;;;;;;;22.50;99.90;;;;;;2613327;54;19947;-70
2023/09/14 12:33:02;;;;;;;;;;;22.70;99.90;;;;;;2612897;47;19946;-58
2023/09/14 12:35:32;;;;;;;;;;;23.10;99.90;;;;;;2614573;54;20041;-59
2023/09/14 12:38:02;;;;;;;;;;;23.20;99.90;;;;;;2614252;47;19947;-59
2023/09/14 12:40:35;;;;;;;;;;;23.30;99.90;;;;;;2613202;54;19953;-58
2023/09/14 12:43:05;;;;;;;;;;;23.40;99.90;;;;;;2614001;54;19973;-59
2023/09/14 12:45:35;;;;;;;;;;;23.40;99.90;;;;;;2614451;54;20642;-58
2023/09/14 12:48:08;;;;;;;;;;;23.40;99.90;;;;;;2614211;54;20046;-61
2023/09/14 12:50:38;;;;;;;;;;;23.20;99.90;;;;;;2613987;54;19947;-60
2023/09/14 12:53:09;;;;;;;;;;;23.00;99.90;;;;;;2614365;54;19946;-58
2023/09/14 12:55:42;;;;;;;;;;;22.80;99.90;;;;;;2614835;54;19946;-57
2023/09/14 12:58:12;;;;;;;;;;;22.70;99.90;;;;;;2614740;54;19953;-59
2023/09/14 13:00:41;;;;;;;;;;;22.40;99.90;;;;;;2614627;54;20047;-67
2023/09/14 13:03:14;;;;;;;;;;;22.50;99.90;;;;;;2614054;54;20390;-67
2023/09/14 13:05:44;;;;;;;;;;;22.30;99.90;;;;;;2614343;54;19946;-66
2023/09/14 13:08:14;;;;;;;;;;;22.10;99.90;;;;;;2613842;54;20421;-67
2023/09/14 13:10:43;;;;;;;;;;;21.90;99.90;;;;;;2614159;46;19969;-67
2023/09/14 13:13:14;;;;;;;;;;;21.90;99.90;;;;;;2613466;54;20365;-67
2023/09/14 13:15:44;;;;;;;;;;;22.30;99.90;;;;;;2614061;54;20443;-65
2023/09/14 13:18:17;;;;;;;;;;;22.80;99.90;;;;;;2613470;50;19961;-67
2023/09/14 13:20:48;;;;;;;;;;;23.30;99.90;;;;;;2613465;54;19946;-64
2023/09/14 13:23:18;;;;;;;;;;;23.80;99.90;;;;;;2618143;39;20295;-65
2023/09/14 13:25:47;;;;;;;;;;;24.30;99.90;;;;;;2621291;54;19946;-65
2023/09/14 13:28:17;;;;;;;;;;;24.60;99.90;;;;;;2615632;54;19958;-67
2023/09/14 13:30:46;;;;;;;;;;;25.20;99.90;;;;;;2613853;54;19954;-65
2023/09/14 13:33:19;;;;;;;;;;;25.40;99.90;;;;;;2613865;54;19955;-65
2023/09/14 13:35:49;;;;;;;;;;;25.70;99.90;;;;;;2614245;54;20809;-65
2023/09/14 13:38:19;;;;;;;;;;;25.40;99.90;;;;;;2613522;52;19954;-65
2023/09/14 13:40:50;;;;;;;;;;;25.20;99.90;;;;;;2621033;47;20057;-66
2023/09/14 13:43:20;;;;;;;;;;;24.80;99.90;;;;;;2615118;39;20076;-66
2023/09/14 13:45:51;;;;;;;;;;;24.50;99.90;;;;;;2613952;54;19946;-65
2023/09/14 13:48:25;;;;;;;;;;;24.20;99.90;;;;;;2615135;54;19946;-65
2023/09/14 13:50:59;;;;;;;;;;;24.10;99.90;;;;;;2615825;54;19946;-64
2023/09/14 13:53:29;;;;;;;;;;;23.90;99.90;;;;;;2615891;54;19954;-63
2023/09/14 13:55:59;;;;;;;;;;;23.70;99.90;;;;;;2617495;54;19950;-64
2023/09/14 13:58:29;;;;;;;;;;;23.60;99.90;;;;;;2617405;54;19951;-66
2023/09/14 14:00:58;;;;;;;;;;;23.40;99.90;;;;;;2614831;54;19981;-64
2023/09/14 14:03:31;;;;;;;;;;;23.30;99.90;;;;;;2615299;54;19946;-65
2023/09/14 14:06:01;;;;;;;;;;;22.70;99.90;;;;;;2617113;46;19966;-64
2023/09/14 14:08:31;;;;;;;;;;;23.50;99.90;;;;;;2614420;54;19962;-64
2023/09/14 14:11:00;;;;;;;;;;;23.90;99.90;;;;;;2615347;47;19951;-64
2023/09/14 14:13:30;;;;;;;;;;;24.40;99.90;;;;;;2618700;54;19954;-63
2023/09/14 14:16:00;;;;;;;;;;;24.80;99.90;;;;;;2618644;54;19954;-66
2023/09/14 14:18:32;;;;;;;;;;;25.10;99.90;;;;;;2618123;54;19984;-67
2023/09/14 14:21:02;;;;;;;;;;;25.60;99.90;;;;;;2618132;54;19947;-66
2023/09/14 14:23:32;;;;;;;;;;;26.00;99.90;;;;;;2619230;54;19953;-67
2023/09/14 14:26:02;;;;;;;;;;;26.20;99.90;;;;;;2618985;46;19954;-67
2023/09/14 14:28:31;;;;;;;;;;;26.40;99.90;;;;;;2619259;54;19954;-66
2023/09/14 14:31:01;;;;;;;;;;;26.40;99.90;;;;;;2617564;54;20447;-67
2023/09/14 14:33:33;;;;;;;;;;;26.10;99.90;;;;;;2617777;54;19953;-66
2023/09/14 14:36:03;;;;;;;;;;;25.60;99.90;;;;;;2616053;54;19952;-67
2023/09/14 14:38:32;;;;;;;;;;;25.40;99.90;;;;;;2619082;54;19953;-67